Time;durP1;ratioP1;P1;durP2;ratioP2;P2;SDS_P1;SDS_P2;PMS_P1;PMS_P2;Temp;Humidity;BMP_temperature;BMP_pressure;BME280_temperature;BME280_humidity;BME280_pressure;Samples;Min_cycle;Max_cycle;Signal;HPM_P1;HPM_P2
2022/10/24 00:03:03;;;;;;;9.77;3.33;;;14.50;99.90;;;;;;7320577;32;20136;-59
2022/10/24 00:07:06;;;;;;;9.60;4.22;;;14.40;99.90;;;;;;7316361;32;20802;-59
2022/10/24 00:11:14;;;;;;;12.98;3.53;;;14.40;99.90;;;;;;7323715;32;20134;-60
2022/10/24 00:15:16;;;;;;;14.35;3.60;;;14.50;99.90;;;;;;7316078;32;20618;-61
2022/10/24 00:19:18;;;;;;;11.77;3.30;;;14.50;99.90;;;;;;7322702;32;20135;-59
2022/10/24 00:23:19;;;;;;;12.07;3.80;;;14.40;99.90;;;;;;7320155;32;20209;-59
2022/10/24 00:27:21;;;;;;;10.85;3.15;;;14.30;99.90;;;;;;7321335;32;20115;-59
2022/10/24 00:31:23;;;;;;;11.90;2.97;;;14.40;99.90;;;;;;7321418;32;20103;-59
2022/10/24 00:35:25;;;;;;;17.15;3.70;;;14.60;99.90;;;;;;7321093;32;20204;-59
2022/10/24 00:39:27;;;;;;;9.30;3.10;;;14.70;99.90;;;;;;7317207;32;20138;-60
2022/10/24 00:43:29;;;;;;;10.10;3.20;;;14.60;99.90;;;;;;7323644;32;20120;-60
2022/10/24 00:47:31;;;;;;;12.73;3.45;;;14.60;99.90;;;;;;7320840;32;20108;-60
2022/10/24 00:51:33;;;;;;;10.88;3.12;;;14.70;99.90;;;;;;7317863;32;20607;-60
2022/10/24 00:55:35;;;;;;;7.68;2.97;;;14.70;99.90;;;;;;7322607;32;20179;-60
2022/10/24 00:59:40;;;;;;;10.25;3.10;;;14.70;99.90;;;;;;7316688;32;20209;-61
2022/10/24 01:03:41;;;;;;;5.80;3.05;;;14.60;99.90;;;;;;7327560;32;20130;-60
2022/10/24 01:07:58;;;;;;;9.23;2.67;;;14.60;99.90;;;;;;7314606;32;20134;-60
2022/10/24 01:12:18;;;;;;;18.02;2.97;;;14.60;99.90;;;;;;7313426;32;20216;-59
2022/10/24 01:16:36;;;;;;;8.95;2.80;;;14.50;99.90;;;;;;7316377;32;20216;-61
2022/10/24 01:20:41;;;;;;;9.02;2.87;;;14.40;99.90;;;;;;7317794;32;20222;-59
2022/10/24 01:25:09;;;;;;;11.45;3.22;;;14.40;99.90;;;;;;7327464;32;20153;-59
2022/10/24 01:29:38;;;;;;;6.75;2.70;;;14.40;99.90;;;;;;7318103;32;20718;-60
2022/10/24 01:33:49;;;;;;;6.90;2.72;;;14.50;99.90;;;;;;7316016;32;20265;-60
2022/10/24 01:38:00;;;;;;;14.10;3.12;;;14.60;99.90;;;;;;7316204;32;20111;-61
2022/10/24 01:42:05;;;;;;;8.40;2.70;;;14.70;99.90;;;;;;7318804;32;20348;-60
2022/10/24 01:46:18;;;;;;;8.55;2.65;;;14.70;99.90;;;;;;7316178;32;20115;-60
2022/10/24 01:50:23;;;;;;;14.20;3.12;;;14.80;99.90;;;;;;7317995;32;20346;-61
2022/10/24 01:54:26;;;;;;;9.32;2.65;;;14.70;99.90;;;;;;7319315;32;20139;-60
2022/10/24 01:58:27;;;;;;;14.55;3.17;;;14.70;99.90;;;;;;7319792;32;20234;-60
2022/10/24 02:02:41;;;;;;;9.30;3.22;;;14.80;99.90;;;;;;7320612;32;20134;-60
2022/10/24 02:06:45;;;;;;;6.60;2.33;;;14.90;99.90;;;;;;7317038;32;20581;-59
2022/10/24 02:10:51;;;;;;;6.97;2.15;;;14.90;99.90;;;;;;7315200;32;20112;-61
2022/10/24 02:15:07;;;;;;;9.40;2.62;;;15.00;99.90;;;;;;7320447;32;20344;-60
2022/10/24 02:19:09;;;;;;;7.93;2.25;;;15.00;99.90;;;;;;7315015;32;20157;-59
2022/10/24 02:23:17;;;;;;;5.50;2.35;;;14.90;99.90;;;;;;7314747;32;20103;-60
2022/10/24 02:27:30;;;;;;;11.85;2.58;;;14.80;99.90;;;;;;7319070;32;20111;-60
2022/10/24 02:31:39;;;;;;;9.15;2.60;;;15.00;99.90;;;;;;7322627;32;20134;-59
2022/10/24 02:35:44;;;;;;;10.68;2.22;;;14.90;99.90;;;;;;7309099;32;20525;-59
2022/10/24 02:39:47;;;;;;;7.95;2.28;;;14.90;99.90;;;;;;7320065;32;20758;-60
2022/10/24 02:43:51;;;;;;;6.95;2.05;;;15.20;99.90;;;;;;7318199;32;20249;-60
2022/10/24 02:47:58;;;;;;;9.38;2.50;;;15.20;99.90;;;;;;7310855;32;20243;-60
2022/10/24 02:52:01;;;;;;;11.48;2.58;;;15.10;99.90;;;;;;7320302;32;20250;-60
2022/10/24 02:56:03;;;;;;;7.22;2.35;;;14.90;99.90;;;;;;7317814;32;20138;-60
2022/10/24 03:00:06;;;;;;;10.95;2.60;;;15.00;99.90;;;;;;7311461;32;20540;-59
2022/10/24 03:04:07;;;;;;;7.45;2.10;;;15.00;99.90;;;;;;7315228;32;20119;-60
2022/10/24 03:08:10;;;;;;;8.48;2.00;;;14.90;99.90;;;;;;7319435;32;20130;-60
2022/10/24 03:12:15;;;;;;;10.45;2.15;;;15.00;99.90;;;;;;7315452;32;20108;-58
2022/10/24 03:16:16;;;;;;;12.10;2.83;;;15.00;99.90;;;;;;7314078;32;20130;-59
2022/10/24 03:20:18;;;;;;;13.15;2.33;;;15.00;99.90;;;;;;7322597;32;20600;-58
2022/10/24 03:24:20;;;;;;;10.65;2.30;;;15.00;99.90;;;;;;7321042;32;20132;-59
2022/10/24 03:28:42;;;;;;;8.05;2.20;;;15.10;99.90;;;;;;7314762;32;20475;-59
2022/10/24 03:32:43;;;;;;;9.98;2.28;;;15.00;99.90;;;;;;7305034;32;20107;-59
2022/10/24 03:36:45;;;;;;;10.15;2.20;;;15.10;99.90;;;;;;7316372;32;20518;-59
2022/10/24 03:40:48;;;;;;;11.55;2.25;;;15.10;99.90;;;;;;7322328;32;20137;-58
2022/10/24 03:44:50;;;;;;;8.73;2.62;;;15.10;99.90;;;;;;7315598;32;20116;-58
2022/10/24 03:48:51;;;;;;;8.75;2.12;;;15.00;99.90;;;;;;7318292;32;20497;-58
2022/10/24 03:52:53;;;;;;;8.05;2.50;;;15.10;99.90;;;;;;7312644;32;20116;-59
2022/10/24 03:56:55;;;;;;;6.85;2.10;;;15.00;99.90;;;;;;7314631;32;20143;-58
2022/10/24 04:00:58;;;;;;;14.00;2.33;;;15.00;99.90;;;;;;7315273;32;20134;-60
2022/10/24 04:05:00;;;;;;;10.43;2.17;;;14.90;99.90;;;;;;7319940;32;20198;-59
2022/10/24 04:09:03;;;;;;;6.53;1.92;;;15.10;99.90;;;;;;7318307;32;20224;-59
2022/10/24 04:13:05;;;;;;;9.82;2.87;;;15.00;99.90;;;;;;7323022;32;20505;-60
2022/10/24 04:17:06;;;;;;;9.48;2.22;;;15.00;99.90;;;;;;7312995;32;20133;-60
2022/10/24 04:21:08;;;;;;;9.77;2.22;;;15.00;99.90;;;;;;7315405;32;20154;-58
2022/10/24 04:25:10;;;;;;;7.68;2.22;;;14.90;99.90;;;;;;7316347;32;20226;-58
2022/10/24 04:29:12;;;;;;;7.37;2.05;;;14.70;99.90;;;;;;7311938;32;20486;-59
2022/10/24 04:33:13;;;;;;;7.75;2.30;;;14.70;99.90;;;;;;7316182;32;20139;-59
2022/10/24 04:37:15;;;;;;;9.32;2.45;;;14.60;99.90;;;;;;7317283;32;20135;-59
2022/10/24 04:41:17;;;;;;;6.62;2.28;;;14.80;99.90;;;;;;7320025;32;20169;-61
2022/10/24 04:45:19;;;;;;;12.52;2.42;;;14.70;99.90;;;;;;7320608;32;20135;-59
2022/10/24 04:49:20;;;;;;;9.50;2.28;;;14.70;99.90;;;;;;7316644;32;20229;-59
2022/10/24 04:53:22;;;;;;;5.93;2.20;;;14.70;99.90;;;;;;7326539;32;20112;-58
2022/10/24 04:57:24;;;;;;;9.75;2.20;;;14.80;99.90;;;;;;7319406;32;20146;-58
2022/10/24 05:01:26;;;;;;;8.13;2.47;;;14.90;99.90;;;;;;7324910;32;20116;-60
2022/10/24 05:05:27;;;;;;;7.22;2.72;;;14.70;99.90;;;;;;7319340;32;20115;-59
2022/10/24 05:09:29;;;;;;;7.90;1.77;;;14.60;99.90;;;;;;7320927;32;20108;-58
2022/10/24 05:13:31;;;;;;;10.55;2.55;;;14.60;99.90;;;;;;7315262;32;20225;-59
2022/10/24 05:17:37;;;;;;;8.88;2.00;;;14.40;99.90;;;;;;7314384;32;20126;-59
2022/10/24 05:21:39;;;;;;;8.88;2.08;;;14.30;99.90;;;;;;7321310;32;20111;-60
2022/10/24 05:25:40;;;;;;;7.07;2.30;;;14.30;99.90;;;;;;7319461;32;20280;-59
2022/10/24 05:29:42;;;;;;;5.90;2.10;;;14.50;99.90;;;;;;7319039;32;20111;-58
2022/10/24 05:33:44;;;;;;;5.43;1.98;;;14.50;99.90;;;;;;7319499;32;20116;-58
2022/10/24 05:37:45;;;;;;;9.48;1.85;;;14.50;99.90;;;;;;7314670;32;20104;-61
2022/10/24 05:41:47;;;;;;;5.60;2.00;;;14.50;99.90;;;;;;7315849;32;20127;-58
2022/10/24 05:45:50;;;;;;;9.68;4.07;;;14.40;99.90;;;;;;7322095;32;20877;-58
2022/10/24 05:49:52;;;;;;;8.88;1.90;;;14.20;99.90;;;;;;7314576;32;20245;-58
2022/10/24 05:53:54;;;;;;;5.50;2.00;;;14.40;99.90;;;;;;7323324;32;20187;-58
2022/10/24 05:57:56;;;;;;;8.32;2.10;;;14.50;99.90;;;;;;7316322;32;20116;-58
2022/10/24 06:01:58;;;;;;;6.12;1.90;;;14.50;99.90;;;;;;7313740;32;20116;-59
2022/10/24 06:06:06;;;;;;;6.95;1.67;;;14.50;99.90;;;;;;7320128;32;20239;-58
2022/10/24 06:10:09;;;;;;;7.07;1.60;;;14.40;99.90;;;;;;7321322;32;20648;-58
2022/10/24 06:14:12;;;;;;;8.57;1.50;;;14.40;99.90;;;;;;7324047;32;20202;-62
2022/10/24 06:18:14;;;;;;;9.27;1.80;;;14.50;99.90;;;;;;7319906;32;20107;-60
2022/10/24 06:22:17;;;;;;;6.37;1.70;;;14.40;99.90;;;;;;7315437;32;20103;-61
2022/10/24 06:26:19;;;;;;;4.35;1.37;;;14.50;99.90;;;;;;7313442;32;20120;-61
2022/10/24 06:30:24;;;;;;;5.87;1.37;;;14.40;99.90;;;;;;7318705;32;20226;-62
2022/10/24 06:34:26;;;;;;;9.82;1.52;;;14.40;99.90;;;;;;7310087;32;20138;-63
2022/10/24 06:38:28;;;;;;;7.07;1.23;;;14.60;99.90;;;;;;7314875;32;20111;-61
2022/10/24 06:42:30;;;;;;;6.37;1.58;;;14.50;99.90;;;;;;7307924;32;20129;-62
2022/10/24 06:46:31;;;;;;;4.55;1.05;;;14.70;99.90;;;;;;7308142;32;20209;-60
2022/10/24 06:50:33;;;;;;;8.25;1.37;;;14.60;99.90;;;;;;7320807;32;20258;-61
2022/10/24 06:54:36;;;;;;;7.60;1.27;;;14.70;99.90;;;;;;7318492;32;20135;-62
2022/10/24 06:58:38;;;;;;;6.28;1.33;;;14.90;99.90;;;;;;7310537;32;20216;-63
2022/10/24 07:02:39;;;;;;;9.55;1.45;;;15.00;99.90;;;;;;7312428;32;20180;-64
2022/10/24 07:06:41;;;;;;;4.43;1.50;;;15.20;99.90;;;;;;7308576;32;20250;-63
2022/10/24 07:10:43;;;;;;;5.32;1.12;;;15.20;99.90;;;;;;7311825;32;20100;-63
2022/10/24 07:14:44;;;;;;;6.35;1.23;;;15.30;99.90;;;;;;7310846;32;20883;-63
2022/10/24 07:18:46;;;;;;;13.77;1.70;;;15.30;99.90;;;;;;7311017;32;20134;-64
2022/10/24 07:22:48;;;;;;;5.50;1.30;;;15.50;99.90;;;;;;7318179;32;20130;-63
2022/10/24 07:26:50;;;;;;;5.75;1.30;;;15.60;99.90;;;;;;7314197;32;20119;-65
2022/10/24 07:30:51;;;;;;;8.65;0.98;;;15.60;99.90;;;;;;7312646;32;20281;-61
2022/10/24 07:34:53;;;;;;;5.25;1.33;;;15.60;99.90;;;;;;7313345;32;20823;-61
2022/10/24 07:38:56;;;;;;;5.95;1.35;;;15.70;99.90;;;;;;7315063;32;20107;-64
2022/10/24 07:42:58;;;;;;;5.97;1.02;;;15.70;99.90;;;;;;7314954;32;20198;-63
2022/10/24 07:47:00;;;;;;;8.07;1.75;;;15.70;99.90;;;;;;7309428;32;20107;-63
2022/10/24 07:51:05;;;;;;;2.58;1.05;;;15.80;99.90;;;;;;7315208;32;20450;-63
2022/10/24 07:55:07;;;;;;;16.17;1.62;;;15.80;99.90;;;;;;7318236;32;20211;-64
2022/10/24 07:59:09;;;;;;;6.20;1.20;;;15.80;99.90;;;;;;7313744;32;20163;-62
2022/10/24 08:03:31;;;;;;;4.78;1.40;;;15.90;99.90;;;;;;7317583;32;20108;-61
2022/10/24 08:07:36;;;;;;;8.43;1.30;;;16.00;99.90;;;;;;7320265;32;20233;-62
2022/10/24 08:11:38;;;;;;;7.37;1.12;;;16.10;99.90;;;;;;7311982;32;20112;-63
2022/10/24 08:15:40;;;;;;;6.75;0.93;;;16.20;99.90;;;;;;7320310;32;20154;-61
2022/10/24 08:19:42;;;;;;;7.50;1.50;;;16.20;99.90;;;;;;7325155;32;20138;-62
2022/10/24 08:23:46;;;;;;;9.38;1.20;;;16.40;99.90;;;;;;7326855;32;20127;-62
2022/10/24 08:27:48;;;;;;;6.00;1.27;;;16.40;99.90;;;;;;7318970;32;20116;-61
2022/10/24 08:31:52;;;;;;;4.30;1.08;;;16.40;99.90;;;;;;7324799;32;20123;-62
2022/10/24 08:35:57;;;;;;;3.78;1.30;;;16.40;99.90;;;;;;7320889;32;20225;-61
2022/10/24 08:39:59;;;;;;;5.90;1.23;;;16.40;99.90;;;;;;7321631;32;20187;-62
2022/10/24 08:44:04;;;;;;;5.68;1.10;;;16.40;99.90;;;;;;7325600;32;20995;-63
2022/10/24 08:48:16;;;;;;;7.05;1.35;;;16.40;99.90;;;;;;7316931;32;20179;-64
2022/10/24 08:52:39;;;;;;;6.43;1.23;;;16.40;99.90;;;;;;7319998;32;20242;-64
2022/10/24 08:56:41;;;;;;;9.57;1.20;;;16.40;99.90;;;;;;7318978;32;20162;-64
2022/10/24 09:00:46;;;;;;;8.48;1.45;;;16.40;99.90;;;;;;7312492;32;20534;-62
2022/10/24 09:04:56;;;;;;;6.68;1.10;;;16.50;99.90;;;;;;7313681;32;20231;-63
2022/10/24 09:09:12;;;;;;;10.20;1.37;;;16.50;99.90;;;;;;7313960;32;20531;-65
2022/10/24 09:13:16;;;;;;;7.55;1.37;;;16.50;99.90;;;;;;7318450;32;20135;-62
2022/10/24 09:17:32;;;;;;;6.03;1.20;;;16.60;99.90;;;;;;7321749;32;20134;-67
2022/10/24 09:21:34;;;;;;;8.13;1.30;;;16.70;99.90;;;;;;7318735;32;21903;-66
2022/10/24 09:25:40;;;;;;;9.30;1.25;;;16.90;99.90;;;;;;7319146;32;20475;-65
2022/10/24 09:29:41;;;;;;;8.60;1.33;;;17.00;99.90;;;;;;7314928;32;20449;-62
2022/10/24 09:33:45;;;;;;;7.50;1.10;;;16.90;99.90;;;;;;7326311;32;20218;-61
2022/10/24 09:37:54;;;;;;;12.55;1.58;;;17.10;99.90;;;;;;7316767;32;20664;-62
2022/10/24 09:41:58;;;;;;;7.15;1.23;;;17.00;99.90;;;;;;7323041;32;20107;-61
2022/10/24 09:46:02;;;;;;;7.87;1.25;;;17.00;99.90;;;;;;7314723;32;20469;-62
2022/10/24 09:50:05;;;;;;;10.18;1.20;;;17.10;99.90;;;;;;7321439;32;20141;-60
2022/10/24 09:54:18;;;;;;;6.25;1.33;;;17.10;99.90;;;;;;7322567;32;20134;-60
2022/10/24 09:58:28;;;;;;;7.93;1.05;;;17.30;99.90;;;;;;7317852;32;20124;-62
2022/10/24 10:02:36;;;;;;;8.93;1.23;;;17.40;99.90;;;;;;7317033;32;20211;-62
2022/10/24 10:06:46;;;;;;;6.57;1.02;;;17.70;99.90;;;;;;7319003;32;20111;-62
2022/10/24 10:11:07;;;;;;;9.90;1.30;;;17.70;99.90;;;;;;7320380;32;20149;-62
2022/10/24 10:15:44;;;;;;;9.48;1.10;;;17.50;99.90;;;;;;7320040;32;20527;-62
2022/10/24 10:19:47;;;;;;;7.80;1.35;;;17.40;99.90;;;;;;7322017;32;20104;-62
2022/10/24 10:23:51;;;;;;;9.80;1.20;;;17.30;99.90;;;;;;7317244;32;20520;-62
2022/10/24 10:27:53;;;;;;;10.45;1.30;;;17.20;99.90;;;;;;7307797;32;20103;-62
2022/10/24 10:32:16;;;;;;;8.45;1.40;;;17.20;99.90;;;;;;7320769;32;20115;-62
2022/10/24 10:36:29;;;;;;;9.73;1.70;;;17.20;99.90;;;;;;7319006;32;20271;-62
2022/10/24 10:40:43;;;;;;;7.47;1.30;;;17.10;99.90;;;;;;7323651;32;20717;-62
2022/10/24 10:45:13;;;;;;;13.43;1.73;;;17.10;99.90;;;;;;7305602;32;20146;-62
2022/10/24 10:49:31;;;;;;;12.15;1.73;;;17.10;99.90;;;;;;7312470;32;20104;-62
2022/10/24 10:53:46;;;;;;;5.30;1.17;;;17.00;99.90;;;;;;7316594;32;20133;-62
2022/10/24 10:58:04;;;;;;;8.57;1.65;;;16.90;99.90;;;;;;7317039;32;20579;-60
2022/10/24 11:02:33;;;;;;;11.10;1.35;;;16.90;99.90;;;;;;7315203;32;20206;-62
2022/10/24 11:06:51;;;;;;;8.25;1.50;;;17.00;99.90;;;;;;7309008;32;20099;-63
2022/10/24 11:11:10;;;;;;;12.77;1.37;;;17.00;99.90;;;;;;7309179;32;20477;-62
2022/10/24 11:15:30;;;;;;;6.75;1.10;;;17.00;99.90;;;;;;7316607;32;20213;-62
2022/10/24 11:20:13;;;;;;;8.73;1.10;;;17.10;99.90;;;;;;7315636;32;20644;-62
2022/10/24 11:24:19;;;;;;;6.65;1.60;;;17.10;99.90;;;;;;7318809;32;20108;-62
2022/10/24 11:28:42;;;;;;;10.98;1.40;;;17.20;99.90;;;;;;7321487;32;21327;-62
2022/10/24 11:33:00;;;;;;;8.68;1.77;;;17.20;99.90;;;;;;7320756;32;20137;-62
2022/10/24 11:37:09;;;;;;;7.20;1.67;;;17.20;99.90;;;;;;7310169;32;20234;-61
2022/10/24 11:41:37;;;;;;;9.45;1.42;;;17.10;99.90;;;;;;7319372;32;20270;-62
2022/10/24 11:45:53;;;;;;;12.82;1.70;;;17.10;99.90;;;;;;7313695;32;20171;-62
2022/10/24 11:50:02;;;;;;;14.13;1.60;;;17.00;99.90;;;;;;7320957;32;20856;-63
2022/10/24 11:54:11;;;;;;;10.38;1.67;;;17.00;99.90;;;;;;7319897;32;20107;-62
2022/10/24 11:58:18;;;;;;;13.02;1.70;;;17.10;99.90;;;;;;7318560;32;20108;-62
2022/10/24 12:02:57;;;;;;;10.50;1.48;;;17.00;99.90;;;;;;7320780;32;20149;-63
2022/10/24 12:07:28;;;;;;;9.05;1.40;;;17.00;99.90;;;;;;7320773;32;20603;-62
2022/10/24 12:11:51;;;;;;;6.35;1.27;;;17.00;99.90;;;;;;7311360;32;20134;-62
2022/10/24 12:16:15;;;;;;;9.63;1.50;;;17.00;99.90;;;;;;7318526;32;20138;-62
2022/10/24 12:20:20;;;;;;;6.05;1.37;;;16.90;99.90;;;;;;7311719;32;20115;-62
2022/10/24 12:24:31;;;;;;;5.25;1.37;;;16.80;99.90;;;;;;7313486;32;20632;-62
2022/10/24 12:28:34;;;;;;;10.07;1.70;;;16.90;99.90;;;;;;7307627;32;20214;-63
2022/10/24 12:32:46;;;;;;;13.23;1.70;;;16.80;99.90;;;;;;7306840;32;20199;-63
2022/10/24 12:37:08;;;;;;;7.20;1.20;;;16.70;99.90;;;;;;7308489;32;20127;-62
2022/10/24 12:41:32;;;;;;;8.95;2.05;;;16.90;99.90;;;;;;7319057;32;20206;-63
2022/10/24 12:45:33;;;;;;;8.35;1.35;;;17.10;99.90;;;;;;7312561;32;20299;-63
2022/10/24 12:49:35;;;;;;;8.25;1.27;;;17.20;99.90;;;;;;7311247;32;20260;-64
2022/10/24 12:54:01;;;;;;;7.65;1.35;;;17.30;99.90;;;;;;7308854;32;20544;-63
2022/10/24 12:58:20;;;;;;;8.27;1.02;;;17.40;99.90;;;;;;7313977;32;20194;-62
2022/10/24 13:02:30;;;;;;;10.20;1.10;;;17.70;99.90;;;;;;7316621;32;20134;-63
2022/10/24 13:06:40;;;;;;;9.27;1.30;;;17.60;99.90;;;;;;7320543;32;20115;-61
2022/10/24 13:11:02;;;;;;;7.62;1.33;;;17.70;99.90;;;;;;7316313;32;20103;-61
2022/10/24 13:15:15;;;;;;;9.15;1.45;;;17.70;99.90;;;;;;7315465;32;20125;-63
2022/10/24 13:19:20;;;;;;;8.70;1.45;;;17.80;99.90;;;;;;7315233;32;20137;-63
2022/10/24 13:23:27;;;;;;;6.12;0.80;;;18.00;99.90;;;;;;7325532;32;20686;-63
2022/10/24 13:27:30;;;;;;;5.63;1.40;;;18.10;99.90;;;;;;7316762;32;20104;-63
2022/10/24 13:31:32;;;;;;;10.07;1.55;;;18.20;99.90;;;;;;7311935;32;20190;-65
2022/10/24 13:35:34;;;;;;;4.65;0.90;;;18.20;99.90;;;;;;7311842;32;20230;-63
2022/10/24 13:39:45;;;;;;;9.20;1.20;;;18.30;99.90;;;;;;7318696;32;20686;-63
2022/10/24 13:43:50;;;;;;;5.28;1.20;;;18.40;99.90;;;;;;7316917;32;20111;-64
2022/10/24 13:48:11;;;;;;;7.85;1.02;;;18.60;99.90;;;;;;7313787;32;20207;-63
2022/10/24 13:52:23;;;;;;;4.80;1.10;;;19.00;99.90;;;;;;7315498;32;20116;-64
2022/10/24 13:56:26;;;;;;;5.37;1.15;;;19.10;99.90;;;;;;7313483;32;20112;-66
2022/10/24 14:00:37;;;;;;;12.05;1.65;;;19.20;99.90;;;;;;7313139;32;20702;-63
2022/10/24 14:04:45;;;;;;;9.95;1.33;;;18.80;99.90;;;;;;7314066;32;20187;-63
2022/10/24 14:08:50;;;;;;;5.32;1.02;;;18.70;99.90;;;;;;7310551;32;20138;-65
2022/10/24 14:13:15;;;;;;;6.95;1.40;;;18.50;99.90;;;;;;7315214;32;20116;-64
2022/10/24 14:17:21;;;;;;;9.07;1.17;;;18.60;99.90;;;;;;7314056;32;20100;-63
2022/10/24 14:21:24;;;;;;;9.45;1.20;;;18.50;99.90;;;;;;7312588;32;20130;-64
2022/10/24 14:25:34;;;;;;;7.35;1.27;;;18.60;99.90;;;;;;7314458;32;20108;-63
2022/10/24 14:29:36;;;;;;;7.15;1.08;;;18.30;99.90;;;;;;7312593;32;20207;-64
2022/10/24 14:33:46;;;;;;;6.37;0.98;;;18.20;99.90;;;;;;7314580;32;20127;-63
2022/10/24 14:37:49;;;;;;;10.32;1.35;;;18.10;99.90;;;;;;7323140;32;20137;-63
2022/10/24 14:41:52;;;;;;;7.05;1.30;;;18.00;99.90;;;;;;7310752;32;20108;-63
2022/10/24 14:46:11;;;;;;;8.68;1.45;;;18.00;99.90;;;;;;7321128;32;20224;-62
2022/10/24 14:50:36;;;;;;;6.70;1.42;;;17.90;99.90;;;;;;7306277;32;20252;-61
2022/10/24 14:54:42;;;;;;;6.47;1.20;;;17.80;99.90;;;;;;7305362;32;20129;-61
2022/10/24 14:58:50;;;;;;;7.87;1.17;;;17.90;99.90;;;;;;7319109;32;20126;-61
2022/10/24 15:02:55;;;;;;;10.70;1.50;;;17.90;99.90;;;;;;7312531;32;20141;-61
2022/10/24 15:06:57;;;;;;;8.48;1.45;;;17.90;99.90;;;;;;7313474;32;20270;-61
2022/10/24 15:11:15;;;;;;;8.80;1.37;;;17.90;99.90;;;;;;7315289;32;20115;-61
2022/10/24 15:15:22;;;;;;;12.68;1.70;;;17.80;99.90;;;;;;7317371;32;20112;-62
2022/10/24 15:19:24;;;;;;;8.82;1.20;;;17.70;99.90;;;;;;7313407;32;20119;-62
2022/10/24 15:23:32;;;;;;;8.55;1.40;;;17.60;99.90;;;;;;7317852;32;20138;-61
2022/10/24 15:27:42;;;;;;;11.52;1.25;;;17.60;99.90;;;;;;7316743;32;20199;-61
2022/10/24 15:31:47;;;;;;;9.38;1.42;;;17.50;99.90;;;;;;7313046;32;20196;-61
2022/10/24 15:35:48;;;;;;;9.82;1.52;;;17.40;99.90;;;;;;7314545;32;20112;-61
2022/10/24 15:39:51;;;;;;;14.20;1.87;;;17.30;99.90;;;;;;7323654;32;20138;-62
2022/10/24 15:43:55;;;;;;;9.98;1.30;;;16.80;99.90;;;;;;7323661;32;20530;-62
2022/10/24 15:47:56;;;;;;;7.10;1.42;;;16.40;99.90;;;;;;7319132;32;20120;-63
2022/10/24 15:51:58;;;;;;;9.70;1.58;;;16.00;99.90;;;;;;7317591;32;20711;-62
2022/10/24 15:56:00;;;;;;;12.02;1.73;;;15.70;99.90;;;;;;7318779;32;20173;-62
2022/10/24 16:00:02;;;;;;;14.40;1.80;;;15.40;99.90;;;;;;7317350;32;20134;-62
2022/10/24 16:04:06;;;;;;;14.15;2.78;;;15.30;99.90;;;;;;7320432;32;20142;-62
2022/10/24 16:08:13;;;;;;;11.52;2.42;;;15.20;99.90;;;;;;7320637;32;20580;-62
2022/10/24 16:12:14;;;;;;;9.27;2.28;;;15.10;99.90;;;;;;7314372;32;20512;-62
2022/10/24 16:16:16;;;;;;;10.85;1.87;;;15.00;99.90;;;;;;7316467;32;20614;-62
2022/10/24 16:20:18;;;;;;;14.10;2.35;;;14.90;99.90;;;;;;7317426;32;20149;-63
2022/10/24 16:24:20;;;;;;;12.80;1.73;;;14.70;99.90;;;;;;7320817;32;20150;-62
2022/10/24 16:28:24;;;;;;;6.80;1.23;;;14.80;99.90;;;;;;7311174;32;20234;-63
2022/10/24 16:32:26;;;;;;;8.63;1.48;;;14.60;99.90;;;;;;7316622;32;20104;-59
2022/10/24 16:36:28;;;;;;;8.20;1.60;;;14.50;99.90;;;;;;7319623;32;20448;-60
2022/10/24 16:40:30;;;;;;;11.77;2.08;;;14.40;99.90;;;;;;7317696;32;20116;-60
2022/10/24 16:44:35;;;;;;;10.38;1.75;;;14.40;99.90;;;;;;7322217;32;20669;-60
2022/10/24 16:48:37;;;;;;;9.93;1.83;;;14.40;99.90;;;;;;7325222;32;20321;-60
2022/10/24 16:52:39;;;;;;;10.48;1.62;;;14.30;99.90;;;;;;7325241;32;20103;-60
2022/10/24 16:56:40;;;;;;;6.45;1.62;;;14.20;99.90;;;;;;7319405;32;20175;-59
2022/10/24 17:00:42;;;;;;;9.25;2.33;;;14.10;99.90;;;;;;7329738;32;21899;-60
2022/10/24 17:04:44;;;;;;;17.77;1.90;;;14.10;99.90;;;;;;7319003;32;20154;-59
2022/10/24 17:08:46;;;;;;;14.73;1.92;;;14.10;99.90;;;;;;7326825;32;20123;-62
2022/10/24 17:12:48;;;;;;;6.62;1.73;;;14.00;99.90;;;;;;7328957;32;20475;-61
2022/10/24 17:16:50;;;;;;;9.57;1.67;;;14.00;99.90;;;;;;7321084;32;20130;-60
2022/10/24 17:20:58;;;;;;;7.07;1.10;;;14.00;99.90;;;;;;7321382;32;20107;-60
2022/10/24 17:25:00;;;;;;;6.53;1.08;;;14.10;99.90;;;;;;7318635;32;20142;-58
2022/10/24 17:29:03;;;;;;;8.35;1.30;;;14.10;99.90;;;;;;7324540;32;20103;-60
2022/10/24 17:33:06;;;;;;;6.78;0.82;;;13.70;99.90;;;;;;7333251;32;20134;-61
2022/10/24 17:37:33;;;;;;;6.00;0.98;;;13.40;99.90;;;;;;7313223;32;20551;-61
2022/10/24 17:41:39;;;;;;;6.78;1.15;;;13.20;99.90;;;;;;7314627;32;20138;-61
2022/10/24 17:45:41;;;;;;;3.97;1.08;;;13.10;99.90;;;;;;7320022;32;20754;-61
2022/10/24 17:49:43;;;;;;;5.47;1.25;;;13.00;99.90;;;;;;7318218;32;20120;-61
2022/10/24 17:53:45;;;;;;;2.92;1.00;;;13.00;99.90;;;;;;7321238;32;20135;-59
2022/10/24 17:57:47;;;;;;;7.90;1.50;;;12.90;99.90;;;;;;7314730;32;20104;-60
2022/10/24 18:01:49;;;;;;;5.22;1.12;;;13.00;99.90;;;;;;7317784;32;20134;-59
2022/10/24 18:05:51;;;;;;;8.43;1.55;;;13.00;99.90;;;;;;7320200;32;20168;-59
2022/10/24 18:09:59;;;;;;;6.12;1.20;;;13.00;99.90;;;;;;7320830;32;20140;-59
2022/10/24 18:14:00;;;;;;;5.90;1.67;;;12.80;99.90;;;;;;7322162;32;20579;-59
2022/10/24 18:18:03;;;;;;;5.43;1.10;;;12.80;99.90;;;;;;7319084;32;20288;-59
2022/10/24 18:22:04;;;;;;;5.05;1.30;;;12.80;99.90;;;;;;7318622;32;20134;-61
2022/10/24 18:26:08;;;;;;;5.90;1.42;;;12.80;99.90;;;;;;7317894;32;20108;-63
2022/10/24 18:30:10;;;;;;;4.25;2.25;;;12.70;99.90;;;;;;7312338;32;20129;-61
2022/10/24 18:34:12;;;;;;;6.65;1.30;;;12.70;99.90;;;;;;7311236;32;20116;-62
2022/10/24 18:38:17;;;;;;;10.18;3.55;;;12.60;99.90;;;;;;7315538;32;20429;-61
2022/10/24 18:42:22;;;;;;;5.70;1.30;;;12.70;99.90;;;;;;7315636;32;20111;-60
2022/10/24 18:46:24;;;;;;;7.00;1.40;;;12.80;99.90;;;;;;7307635;32;20786;-61
2022/10/24 18:50:26;;;;;;;7.82;1.20;;;12.80;99.90;;;;;;7318719;32;20115;-62
2022/10/24 18:54:28;;;;;;;4.25;0.90;;;12.70;99.90;;;;;;7312624;32;20421;-61
2022/10/24 18:58:30;;;;;;;6.72;1.17;;;12.60;99.90;;;;;;7303759;32;20115;-61
2022/10/24 19:02:37;;;;;;;6.20;1.17;;;12.50;99.90;;;;;;7316938;32;20187;-60
2022/10/24 19:06:40;;;;;;;5.20;0.98;;;12.40;99.90;;;;;;7330213;32;20764;-61
2022/10/24 19:10:42;;;;;;;7.85;1.17;;;12.30;99.90;;;;;;7314631;32;20190;-60
2022/10/24 19:14:44;;;;;;;10.52;1.73;;;12.30;99.90;;;;;;7314723;32;20783;-60
2022/10/24 19:18:54;;;;;;;8.15;1.55;;;12.30;99.90;;;;;;7311495;32;21078;-61
2022/10/24 19:22:57;;;;;;;10.65;1.95;;;12.30;99.90;;;;;;7317643;32;20134;-61
2022/10/24 19:26:59;;;;;;;6.37;1.60;;;12.30;99.90;;;;;;7315760;32;20859;-61
2022/10/24 19:31:01;;;;;;;8.70;2.15;;;12.30;99.90;;;;;;7307135;32;20187;-62
2022/10/24 19:35:03;;;;;;;7.43;1.98;;;12.30;99.90;;;;;;7313684;32;20153;-61
2022/10/24 19:39:05;;;;;;;11.73;2.45;;;12.30;99.90;;;;;;7313908;32;20527;-60
2022/10/24 19:43:07;;;;;;;7.97;2.42;;;12.30;99.90;;;;;;7311263;32;20520;-62
2022/10/24 19:47:08;;;;;;;10.55;2.30;;;12.30;99.90;;;;;;7318737;32;20221;-62
2022/10/24 19:51:11;;;;;;;13.30;2.90;;;12.30;99.90;;;;;;7321577;32;20246;-63
2022/10/24 19:55:13;;;;;;;14.55;3.40;;;12.30;99.90;;;;;;7313236;32;20194;-61
2022/10/24 19:59:15;;;;;;;10.27;2.45;;;12.30;99.90;;;;;;7318757;32;20115;-62
2022/10/24 20:03:17;;;;;;;15.45;3.58;;;12.30;99.90;;;;;;7322241;32;20107;-63
2022/10/24 20:07:19;;;;;;;12.68;3.35;;;12.40;99.90;;;;;;7315620;32;20103;-62
2022/10/24 20:11:21;;;;;;;10.65;2.70;;;12.50;99.90;;;;;;7318944;32;20138;-62
2022/10/24 20:15:23;;;;;;;13.35;2.90;;;12.70;99.90;;;;;;7321607;32;20992;-62
2022/10/24 20:19:25;;;;;;;16.02;2.92;;;12.90;99.90;;;;;;7318573;32;20112;-62
2022/10/24 20:23:26;;;;;;;12.77;2.10;;;13.00;99.90;;;;;;7315583;32;20142;-63
2022/10/24 20:27:28;;;;;;;9.95;1.75;;;13.30;99.90;;;;;;7316869;32;20112;-63
2022/10/24 20:31:39;;;;;;;11.30;2.00;;;13.40;99.90;;;;;;7319842;32;20104;-62
2022/10/24 20:35:42;;;;;;;9.52;1.85;;;13.40;99.90;;;;;;7320328;32;20219;-62
2022/10/24 20:39:44;;;;;;;9.55;1.52;;;13.50;99.90;;;;;;7316226;32;20242;-62
2022/10/24 20:43:46;;;;;;;5.30;1.40;;;13.30;99.90;;;;;;7321628;32;20100;-62
2022/10/24 20:47:47;;;;;;;6.87;1.23;;;13.30;99.90;;;;;;7315404;32;20551;-60
2022/10/24 20:51:49;;;;;;;8.82;1.15;;;13.10;99.90;;;;;;7320046;32;20094;-61
2022/10/24 20:55:51;;;;;;;5.15;0.90;;;13.00;99.90;;;;;;7328557;32;20581;-61
2022/10/24 20:59:53;;;;;;;3.53;0.85;;;12.90;99.90;;;;;;7318237;32;20212;-62
2022/10/24 21:03:56;;;;;;;6.90;1.08;;;12.80;99.90;;;;;;7315462;32;20226;-63
2022/10/24 21:07:57;;;;;;;4.85;1.10;;;12.80;99.90;;;;;;7325184;32;20179;-62
2022/10/24 21:11:59;;;;;;;7.80;1.42;;;12.70;99.90;;;;;;7323329;32;20491;-62
2022/10/24 21:16:01;;;;;;;6.53;1.40;;;12.80;99.90;;;;;;7320169;32;20556;-62